createdAt,value
2022-09-23T00:01:04.552Z,8.27
2022-09-23T00:03:32.977Z,7.43
2022-09-23T00:06:01.562Z,7.97
2022-09-23T00:08:29.200Z,8.60
2022-09-23T00:10:56.949Z,8.27
2022-09-23T00:13:26.873Z,8.27
2022-09-23T00:15:53.597Z,8.80
2022-09-23T00:18:21.073Z,8.67
2022-09-23T00:20:48.116Z,8.10
2022-09-23T00:23:14.998Z,9.10
2022-09-23T00:25:41.738Z,9.23
2022-09-23T00:28:08.471Z,8.67
2022-09-23T00:30:35.320Z,8.60
2022-09-23T00:33:02.083Z,9.17
2022-09-23T00:35:28.812Z,9.03
2022-09-23T00:37:56.182Z,9.20
2022-09-23T00:40:23.037Z,8.83
2022-09-23T00:42:52.122Z,9.47
2022-09-23T00:45:19.516Z,9.17
2022-09-23T00:47:59.139Z,9.30
2022-09-23T00:50:40.278Z,9.03
2022-09-23T00:53:11.589Z,9.47
2022-09-23T00:55:46.802Z,9.23
2022-09-23T00:58:17.788Z,9.80
2022-09-23T01:00:46.429Z,10.23
2022-09-23T01:03:14.073Z,9.97
2022-09-23T01:05:42.113Z,10.37
2022-09-23T01:08:12.762Z,9.83
2022-09-23T01:10:57.784Z,9.70
2022-09-23T01:13:56.016Z,10.67
2022-09-23T01:17:16.974Z,9.30
2022-09-23T01:20:03.361Z,9.83
2022-09-23T01:22:35.961Z,10.03
2022-09-23T01:25:23.165Z,9.53
2022-09-23T01:28:08.597Z,10.50
2022-09-23T01:30:50.519Z,9.80
2022-09-23T01:33:31.853Z,10.13
2022-09-23T01:36:08.426Z,10.23
2022-09-23T01:38:40.934Z,9.87
2022-09-23T01:41:16.892Z,9.37
2022-09-23T01:44:03.846Z,9.67
2022-09-23T01:46:37.930Z,9.87
2022-09-23T01:49:10.472Z,10.20
2022-09-23T01:51:47.746Z,8.70
2022-09-23T01:54:28.566Z,9.50
2022-09-23T01:57:04.973Z,9.13
2022-09-23T01:59:41.462Z,8.73
2022-09-23T02:02:15.411Z,9.07
2022-09-23T02:05:04.325Z,9.70
2022-09-23T02:07:40.997Z,9.60
2022-09-23T02:10:15.683Z,9.00
2022-09-23T02:12:47.400Z,9.93
2022-09-23T02:15:18.480Z,9.97
2022-09-23T02:17:52.213Z,9.00
2022-09-23T02:20:30.735Z,9.57
2022-09-23T02:23:07.696Z,9.70
2022-09-23T02:25:59.973Z,9.33
2022-09-23T02:28:40.177Z,8.70
2022-09-23T02:31:09.139Z,9.03
2022-09-23T02:33:46.195Z,9.10
2022-09-23T02:36:21.809Z,9.27
2022-09-23T02:38:57.569Z,8.83
2022-09-23T02:41:28.823Z,8.90
2022-09-23T02:44:11.666Z,9.27
2022-09-23T02:46:39.047Z,9.33
2022-09-23T02:49:19.939Z,9.50
2022-09-23T02:51:47.071Z,9.33
2022-09-23T02:54:18.801Z,8.87
2022-09-23T02:56:45.639Z,8.87
2022-09-23T02:59:13.078Z,8.67
2022-09-23T03:02:05.039Z,9.07
2022-09-23T03:05:08.685Z,8.63
2022-09-23T03:08:04.335Z,8.60
2022-09-23T03:10:41.290Z,9.30
2022-09-23T03:13:19.356Z,8.60
2022-09-23T03:16:00.557Z,8.57
2022-09-23T03:18:40.230Z,9.03
2022-09-23T03:21:13.500Z,9.10
2022-09-23T03:23:42.225Z,9.40
2022-09-23T03:26:13.823Z,9.20
2022-09-23T03:28:43.708Z,8.93
2022-09-23T03:31:13.081Z,8.83
2022-09-23T03:33:45.582Z,9.03
2022-09-23T03:36:36.617Z,9.97
2022-09-23T03:39:08.932Z,8.87
2022-09-23T03:41:50.812Z,9.60
2022-09-23T03:44:19.478Z,8.63
2022-09-23T03:46:49.893Z,9.13
2022-09-23T03:49:24.293Z,9.20
2022-09-23T03:51:51.043Z,10.33
2022-09-23T03:54:19.676Z,9.80
2022-09-23T03:56:50.366Z,9.50
2022-09-23T03:59:17.393Z,9.00
2022-09-23T04:01:45.939Z,9.73
2022-09-23T04:04:13.012Z,9.83
2022-09-23T04:06:39.823Z,9.97
2022-09-23T04:09:06.943Z,9.47
2022-09-23T04:11:33.704Z,11.00
2022-09-23T04:14:00.533Z,10.77
2022-09-23T04:16:27.974Z,10.60
2022-09-23T04:18:54.833Z,11.07
2022-09-23T04:21:22.113Z,11.37
2022-09-23T04:23:48.827Z,10.60
2022-09-23T04:26:15.895Z,11.67
2022-09-23T04:28:42.665Z,11.00
2022-09-23T04:31:09.948Z,10.80
2022-09-23T04:33:37.649Z,12.13
2022-09-23T04:36:04.828Z,11.57
2022-09-23T04:38:31.705Z,12.63
2022-09-23T04:40:58.872Z,12.60
2022-09-23T04:43:25.648Z,12.80
2022-09-23T04:46:02.575Z,13.87
2022-09-23T04:48:29.668Z,13.07
2022-09-23T04:51:17.356Z,13.70
2022-09-23T04:53:46.101Z,12.93
2022-09-23T04:56:15.997Z,14.63
2022-09-23T04:58:43.928Z,15.03
2022-09-23T05:01:23.869Z,14.63
2022-09-23T05:03:52.894Z,13.90
2022-09-23T05:06:20.522Z,14.23
2022-09-23T05:08:53.002Z,14.43
2022-09-23T05:11:19.977Z,13.00
2022-09-23T05:13:51.713Z,14.87
2022-09-23T05:16:19.963Z,13.67
2022-09-23T05:18:46.905Z,13.63
2022-09-23T05:21:16.209Z,13.57
2022-09-23T05:23:47.929Z,13.10
2022-09-23T05:26:15.302Z,13.03
2022-09-23T05:28:42.093Z,13.20
2022-09-23T05:31:15.824Z,12.37
2022-09-23T05:33:48.802Z,12.30
2022-09-23T05:36:17.830Z,11.60
2022-09-23T05:38:45.234Z,13.03
2022-09-23T05:41:13.510Z,13.13
2022-09-23T05:43:41.143Z,12.27
2022-09-23T05:46:11.943Z,11.40
2022-09-23T05:48:40.202Z,11.77
2022-09-23T05:51:12.997Z,12.47
2022-09-23T05:53:41.666Z,10.77
2022-09-23T05:56:08.555Z,12.37
2022-09-23T05:58:35.582Z,10.10
2022-09-23T06:01:09.913Z,10.87
2022-09-23T06:03:36.990Z,11.37
2022-09-23T06:06:03.885Z,10.87
2022-09-23T06:08:31.934Z,10.70
2022-09-23T06:10:58.780Z,10.53
2022-09-23T06:13:27.451Z,9.40
2022-09-23T06:15:58.091Z,9.53
2022-09-23T06:18:25.055Z,8.97
2022-09-23T06:20:52.058Z,9.13
2022-09-23T06:23:20.258Z,9.33
2022-09-23T06:25:48.887Z,9.00
2022-09-23T06:28:15.656Z,9.10
2022-09-23T06:30:42.716Z,8.77
2022-09-23T06:33:10.188Z,9.27
2022-09-23T06:35:36.929Z,8.70
2022-09-23T06:38:05.600Z,8.37
2022-09-23T06:40:32.640Z,8.37
2022-09-23T06:43:01.049Z,9.13
2022-09-23T06:45:28.822Z,8.80
2022-09-23T06:47:58.616Z,8.63
2022-09-23T06:50:27.151Z,8.17
2022-09-23T06:52:56.247Z,7.70
2022-09-23T06:55:24.875Z,8.80
2022-09-23T06:57:51.715Z,8.97
2022-09-23T07:00:19.371Z,8.33
2022-09-23T07:02:47.081Z,8.10
2022-09-23T07:05:16.521Z,8.80
2022-09-23T07:07:44.597Z,8.70
2022-09-23T07:10:12.266Z,8.40
2022-09-23T07:12:39.264Z,8.50
2022-09-23T07:15:06.710Z,8.57
2022-09-23T07:17:34.993Z,7.67
2022-09-23T07:20:02.162Z,8.00
2022-09-23T07:22:29.553Z,8.07
2022-09-23T07:24:56.344Z,8.00
2022-09-23T07:27:25.888Z,7.83
2022-09-23T07:29:53.149Z,8.13
2022-09-23T07:32:22.094Z,7.43
2022-09-23T07:34:49.336Z,8.33
2022-09-23T07:37:18.101Z,7.80
2022-09-23T07:39:45.458Z,7.77
2022-09-23T07:42:13.269Z,7.73
2022-09-23T07:44:43.259Z,8.77
2022-09-23T07:47:10.049Z,8.43
2022-09-23T07:49:37.158Z,7.80
2022-09-23T07:52:04.849Z,7.83
2022-09-23T07:54:32.793Z,7.67
2022-09-23T07:56:59.915Z,8.00
2022-09-23T07:59:27.297Z,8.07
2022-09-23T08:01:56.714Z,7.80
2022-09-23T08:04:29.868Z,7.97
2022-09-23T08:07:05.411Z,7.70
2022-09-23T08:09:41.683Z,7.37
2022-09-23T08:12:16.252Z,7.03
2022-09-23T08:14:43.519Z,7.07
2022-09-23T08:17:12.512Z,7.65
2022-09-23T08:19:39.299Z,7.50
2022-09-23T08:22:06.102Z,7.18
2022-09-23T08:24:32.866Z,7.53
2022-09-23T08:26:59.627Z,7.32
2022-09-23T08:29:26.530Z,8.02
2022-09-23T08:31:54.050Z,7.53
2022-09-23T08:34:22.606Z,7.18
2022-09-23T08:36:49.769Z,7.82
2022-09-23T08:39:18.228Z,7.88
2022-09-23T08:42:06.403Z,7.50
2022-09-23T08:44:39.393Z,7.55
2022-09-23T08:47:12.288Z,7.60
2022-09-23T08:50:06.618Z,6.90
2022-09-23T08:52:39.896Z,7.80
2022-09-23T08:55:13.290Z,7.50
2022-09-23T08:58:24.001Z,6.97
2022-09-23T09:01:02.459Z,7.72
2022-09-23T09:03:46.131Z,7.22
2022-09-23T09:06:18.737Z,7.82
2022-09-23T09:08:54.644Z,8.80
2022-09-23T09:11:23.908Z,6.85
2022-09-23T09:14:17.290Z,7.82
2022-09-23T09:17:17.893Z,7.47
2022-09-23T09:19:47.719Z,6.65
2022-09-23T09:22:21.300Z,6.70
2022-09-23T09:24:49.737Z,7.70
2022-09-23T09:27:16.487Z,6.85
2022-09-23T09:29:49.878Z,6.78
2022-09-23T09:32:33.745Z,6.95
2022-09-23T09:35:09.107Z,6.25
2022-09-23T09:37:47.713Z,7.22
2022-09-23T09:40:20.443Z,6.93
2022-09-23T09:42:49.999Z,6.47
2022-09-23T09:45:38.623Z,6.43
2022-09-23T09:48:34.867Z,6.72
2022-09-23T09:51:27.715Z,6.50
2022-09-23T09:53:56.908Z,6.13
2022-09-23T09:56:34.850Z,6.75
2022-09-23T09:59:13.836Z,6.35
2022-09-23T10:01:40.706Z,6.35
2022-09-23T10:04:23.779Z,6.40
2022-09-23T10:07:07.623Z,5.68
2022-09-23T10:09:38.786Z,5.93
2022-09-23T10:12:20.311Z,6.50
2022-09-23T10:14:51.912Z,5.75
2022-09-23T10:17:24.175Z,5.70
2022-09-23T10:20:00.355Z,6.60
2022-09-23T10:22:42.883Z,6.28
2022-09-23T10:25:18.080Z,5.88
2022-09-23T10:27:45.595Z,6.10
2022-09-23T10:30:15.342Z,6.07
2022-09-23T10:32:45.274Z,6.40
2022-09-23T10:35:16.269Z,5.38
2022-09-23T10:37:46.805Z,5.65
2022-09-23T10:40:39.773Z,6.28
2022-09-23T10:44:02.487Z,5.90
2022-09-23T10:46:41.249Z,5.93
2022-09-23T10:49:31.056Z,6.07
2022-09-23T10:52:17.160Z,5.45
2022-09-23T10:54:56.750Z,5.57
2022-09-23T10:57:44.940Z,6.60
2022-09-23T11:00:30.461Z,5.65
2022-09-23T11:03:09.382Z,5.97
2022-09-23T11:06:00.822Z,5.45
2022-09-23T11:08:50.954Z,6.07
2022-09-23T11:11:42.111Z,5.90
2022-09-23T11:14:27.688Z,5.43
2022-09-23T11:17:14.768Z,5.57
2022-09-23T11:19:58.381Z,5.78
2022-09-23T11:23:00.551Z,5.22
2022-09-23T11:25:58.463Z,5.65
2022-09-23T11:28:55.435Z,5.07
2022-09-23T11:31:47.377Z,5.80
2022-09-23T11:34:25.473Z,5.80
2022-09-23T11:36:52.150Z,5.80
2022-09-23T11:39:31.092Z,6.22
2022-09-23T11:42:01.602Z,5.57
2022-09-23T11:44:51.093Z,6.53
2022-09-23T11:47:26.463Z,5.90
2022-09-23T11:50:00.612Z,5.93
2022-09-23T11:52:36.344Z,5.93
2022-09-23T11:55:22.900Z,5.85
2022-09-23T11:57:53.006Z,5.65
2022-09-23T12:00:26.562Z,6.60
2022-09-23T12:03:30.525Z,6.40
2022-09-23T12:06:32.209Z,6.22
2022-09-23T12:09:11.066Z,6.32
2022-09-23T12:11:46.666Z,6.60
2022-09-23T12:14:38.942Z,6.28
2022-09-23T12:17:37.826Z,5.47
2022-09-23T12:20:33.453Z,5.72
2022-09-23T12:23:54.713Z,6.07
2022-09-23T12:26:25.168Z,6.38
2022-09-23T12:28:58.932Z,6.15
2022-09-23T12:31:30.740Z,6.68
2022-09-23T12:34:03.906Z,6.35
2022-09-23T12:36:36.672Z,6.13
2022-09-23T12:39:03.465Z,6.80
2022-09-23T12:41:35.364Z,6.45
2022-09-23T12:44:12.851Z,6.82
2022-09-23T12:46:41.520Z,6.85
2022-09-23T12:49:35.948Z,6.57
2022-09-23T12:52:11.800Z,6.50
2022-09-23T12:54:40.617Z,6.60
2022-09-23T12:57:12.545Z,7.18
2022-09-23T12:59:51.523Z,6.80
2022-09-23T13:02:30.362Z,6.07
2022-09-23T13:05:28.072Z,6.50
2022-09-23T13:08:24.396Z,6.43
2022-09-23T13:11:01.643Z,6.70
2022-09-23T13:13:35.692Z,6.50
2022-09-23T13:16:31.635Z,6.35
2022-09-23T13:19:06.586Z,6.25
2022-09-23T13:21:42.620Z,6.40
2022-09-23T13:24:12.627Z,7.00
2022-09-23T13:26:45.679Z,6.95
2022-09-23T13:29:19.276Z,6.75
2022-09-23T13:31:47.543Z,7.00
2022-09-23T13:34:19.660Z,6.95
2022-09-23T13:36:48.614Z,6.47
2022-09-23T13:39:20.806Z,6.70
2022-09-23T13:41:47.766Z,6.80
2022-09-23T13:44:20.531Z,6.80
2022-09-23T13:46:51.472Z,6.90
2022-09-23T13:49:24.777Z,7.35
2022-09-23T13:51:54.150Z,7.13
2022-09-23T13:54:49.327Z,6.57
2022-09-23T13:57:26.936Z,7.55
2022-09-23T13:59:53.749Z,7.28
2022-09-23T14:02:20.576Z,7.35
2022-09-23T14:04:47.458Z,7.43
2022-09-23T14:07:16.767Z,7.93
2022-09-23T14:09:47.793Z,7.53
2022-09-23T14:12:15.278Z,7.68
2022-09-23T14:14:43.310Z,7.93
2022-09-23T14:17:18.427Z,7.32
2022-09-23T14:19:46.087Z,7.15
2022-09-23T14:22:27.597Z,8.25
2022-09-23T14:24:56.969Z,7.22
2022-09-23T14:27:32.255Z,7.22
2022-09-23T14:30:00.317Z,7.90
2022-09-23T14:32:29.533Z,8.10
2022-09-23T14:35:05.162Z,7.05
2022-09-23T14:37:56.659Z,7.68
2022-09-23T14:40:23.494Z,7.05
2022-09-23T14:42:57.191Z,8.00
2022-09-23T14:45:27.692Z,7.93
2022-09-23T14:48:00.140Z,7.78
2022-09-23T14:50:47.301Z,7.78
2022-09-23T14:53:18.473Z,7.78
2022-09-23T14:56:07.534Z,8.68
2022-09-23T14:59:00.702Z,8.52
2022-09-23T15:01:30.544Z,7.65
2022-09-23T15:04:12.694Z,7.65
2022-09-23T15:06:43.037Z,8.63
2022-09-23T15:09:17.581Z,8.68
2022-09-23T15:11:44.423Z,8.77
2022-09-23T15:14:36.167Z,9.05
2022-09-23T15:17:01.305Z,8.45
2022-09-23T15:19:28.969Z,10.40
2022-09-23T15:21:55.883Z,9.10
2022-09-23T15:24:42.537Z,9.85
2022-09-23T15:27:30.492Z,9.35
2022-09-23T15:30:15.587Z,8.98
2022-09-23T15:32:46.317Z,9.60
2022-09-23T15:35:19.118Z,8.65
2022-09-23T15:37:47.237Z,9.50
2022-09-23T15:40:24.481Z,9.75
2022-09-23T15:42:56.128Z,9.48
2022-09-23T15:45:33.823Z,9.70
2022-09-23T15:48:11.965Z,9.05
2022-09-23T15:50:41.227Z,9.38
2022-09-23T15:53:13.938Z,9.73
2022-09-23T15:55:40.777Z,9.57
2022-09-23T15:58:07.646Z,9.82
2022-09-23T16:00:36.516Z,9.48
2022-09-23T16:03:06.059Z,9.00
2022-09-23T16:05:38.721Z,9.70
2022-09-23T16:08:09.294Z,10.00
2022-09-23T16:10:37.740Z,9.82
2022-09-23T16:13:09.022Z,9.90
2022-09-23T16:15:35.994Z,9.88
2022-09-23T16:18:02.834Z,11.05
2022-09-23T16:20:30.473Z,11.20
2022-09-23T16:23:00.053Z,10.37
2022-09-23T16:25:30.134Z,11.48
2022-09-23T16:27:58.473Z,11.20
2022-09-23T16:30:30.578Z,11.40
2022-09-23T16:32:57.590Z,11.90
2022-09-23T16:35:26.945Z,11.13
2022-09-23T16:37:53.794Z,12.07
2022-09-23T16:40:23.099Z,11.35
2022-09-23T16:42:52.362Z,12.13
2022-09-23T16:45:23.049Z,11.13
2022-09-23T16:47:51.932Z,11.80
2022-09-23T16:50:21.066Z,12.80
2022-09-23T16:52:48.349Z,12.60
2022-09-23T16:55:15.867Z,12.57
2022-09-23T16:57:42.687Z,12.27
2022-09-23T17:00:32.453Z,12.67
2022-09-23T17:03:18.363Z,13.17
2022-09-23T17:05:46.895Z,12.53
2022-09-23T17:08:15.485Z,12.90
2022-09-23T17:10:44.043Z,13.47
2022-09-23T17:13:14.991Z,13.50
2022-09-23T17:15:44.082Z,13.30
2022-09-23T17:18:10.914Z,12.63
2022-09-23T17:20:38.778Z,12.37
2022-09-23T17:23:05.779Z,14.07
2022-09-23T17:25:34.069Z,12.40
2022-09-23T17:28:01.244Z,75.10
2022-09-23T17:30:28.838Z,18.43
2022-09-23T17:32:55.709Z,14.77
2022-09-23T17:35:22.815Z,13.40
2022-09-23T17:37:50.057Z,12.63
2022-09-23T17:40:17.396Z,12.13
2022-09-23T17:42:44.640Z,12.43
2022-09-23T17:45:12.896Z,13.00
2022-09-23T17:47:41.913Z,13.43
2022-09-23T17:50:09.001Z,12.43
2022-09-23T17:52:35.824Z,12.50
2022-09-23T17:55:02.640Z,12.47
2022-09-23T17:57:29.439Z,12.20
2022-09-23T17:59:56.335Z,12.90
2022-09-23T18:02:23.363Z,12.13
2022-09-23T18:04:50.339Z,12.20
2022-09-23T18:07:17.114Z,12.10
2022-09-23T18:09:43.863Z,13.40
2022-09-23T18:12:10.627Z,12.13
2022-09-23T18:14:37.421Z,14.27
2022-09-23T18:17:04.226Z,12.30
2022-09-23T18:19:30.968Z,12.73
2022-09-23T18:21:58.014Z,12.93
2022-09-23T18:24:33.362Z,13.60
2022-09-23T18:27:01.265Z,12.93
2022-09-23T18:29:28.685Z,13.83
2022-09-23T18:31:55.879Z,13.37
2022-09-23T18:34:23.588Z,13.23
2022-09-23T18:36:50.535Z,14.33
2022-09-23T18:39:17.495Z,14.57
2022-09-23T18:41:44.349Z,13.67
2022-09-23T18:44:11.347Z,14.67
2022-09-23T18:46:38.334Z,15.33
2022-09-23T18:49:23.748Z,14.40
2022-09-23T18:51:54.201Z,13.43
2022-09-23T18:54:21.942Z,13.60
2022-09-23T18:56:49.965Z,15.50
2022-09-23T18:59:20.439Z,17.83
2022-09-23T19:01:49.995Z,13.63
2022-09-23T19:04:19.198Z,13.77
2022-09-23T19:06:46.504Z,13.77
2022-09-23T19:09:15.108Z,12.07
2022-09-23T19:11:42.028Z,12.63
2022-09-23T19:14:11.546Z,14.37
2022-09-23T19:16:39.945Z,19.17
2022-09-23T19:19:06.985Z,14.67
2022-09-23T19:21:34.632Z,15.47
2022-09-23T19:24:08.149Z,15.73
2022-09-23T19:26:38.303Z,13.37
2022-09-23T19:29:08.102Z,13.37
2022-09-23T19:31:40.103Z,14.83
2022-09-23T19:34:11.487Z,16.27
2022-09-23T19:36:41.018Z,13.00
2022-09-23T19:39:23.768Z,13.00
2022-09-23T19:41:52.357Z,12.60
2022-09-23T19:44:20.209Z,13.60
2022-09-23T19:46:53.453Z,15.23
2022-09-23T19:49:23.899Z,12.90
2022-09-23T19:51:50.750Z,13.03
2022-09-23T19:54:20.872Z,13.13
2022-09-23T19:56:49.954Z,14.20
2022-09-23T19:59:19.154Z,14.83
2022-09-23T20:01:47.979Z,13.30
2022-09-23T20:04:15.900Z,12.90
2022-09-23T20:06:43.354Z,12.70
2022-09-23T20:09:10.390Z,12.33
2022-09-23T20:11:37.303Z,13.10
2022-09-23T20:14:06.129Z,13.10
2022-09-23T20:16:35.919Z,13.70
2022-09-23T20:19:04.355Z,12.68
2022-09-23T20:21:31.698Z,12.60
2022-09-23T20:23:58.803Z,13.87
2022-09-23T20:26:44.360Z,12.93
2022-09-23T20:29:11.575Z,11.95
2022-09-23T20:31:40.543Z,12.73
2022-09-23T20:34:08.290Z,13.57
2022-09-23T20:36:35.399Z,16.03
2022-09-23T20:39:05.888Z,11.83
2022-09-23T20:41:37.132Z,14.23
2022-09-23T20:44:07.065Z,13.97
2022-09-23T20:46:34.545Z,13.53
2022-09-23T20:49:02.103Z,15.00
2022-09-23T20:51:29.186Z,13.00
2022-09-23T20:53:55.986Z,13.40
2022-09-23T20:56:23.639Z,14.40
2022-09-23T20:58:52.684Z,13.60
2022-09-23T21:01:20.806Z,18.37
2022-09-23T21:03:50.169Z,17.23
2022-09-23T21:06:19.073Z,13.67
2022-09-23T21:08:46.546Z,14.23
2022-09-23T21:11:16.562Z,14.37
2022-09-23T21:13:48.374Z,15.17
2022-09-23T21:16:17.419Z,14.80
2022-09-23T21:18:45.111Z,14.67
2022-09-23T21:21:14.146Z,16.43
2022-09-23T21:23:45.912Z,16.03
2022-09-23T21:26:17.775Z,15.90
2022-09-23T21:28:46.953Z,16.73
2022-09-23T21:31:25.776Z,16.87
2022-09-23T21:34:04.616Z,16.17
2022-09-23T21:36:33.718Z,15.57
2022-09-23T21:39:04.455Z,16.70
2022-09-23T21:41:32.058Z,16.05
2022-09-23T21:44:00.342Z,15.70
2022-09-23T21:46:28.281Z,16.17
2022-09-23T21:48:57.455Z,16.40
2022-09-23T21:51:27.056Z,15.60
2022-09-23T21:53:55.794Z,15.67
2022-09-23T21:56:25.329Z,15.73
2022-09-23T21:58:54.686Z,15.27
2022-09-23T22:01:27.506Z,16.57
2022-09-23T22:03:59.321Z,15.87
2022-09-23T22:06:27.617Z,16.17
2022-09-23T22:09:00.669Z,17.63
2022-09-23T22:11:51.611Z,16.63
2022-09-23T22:14:19.874Z,16.37
2022-09-23T22:16:46.999Z,16.40
2022-09-23T22:19:15.609Z,16.40
2022-09-23T22:21:44.147Z,15.50
2022-09-23T22:24:12.558Z,16.07
2022-09-23T22:26:41.685Z,16.30
2022-09-23T22:29:28.960Z,16.00
2022-09-23T22:32:14.305Z,15.97
2022-09-23T22:34:50.998Z,14.40
2022-09-23T22:37:26.379Z,15.43
2022-09-23T22:39:54.335Z,15.80
2022-09-23T22:42:22.367Z,16.10
2022-09-23T22:44:50.272Z,15.87
2022-09-23T22:47:18.105Z,17.03
2022-09-23T22:49:46.152Z,15.63
2022-09-23T22:52:14.958Z,17.07
2022-09-23T22:54:42.192Z,16.93
2022-09-23T22:57:09.462Z,16.90
2022-09-23T22:59:37.417Z,15.83
2022-09-23T23:02:05.072Z,16.80
2022-09-23T23:04:32.305Z,17.70
2022-09-23T23:06:59.606Z,17.87
2022-09-23T23:09:26.459Z,17.60
2022-09-23T23:11:53.173Z,16.97
2022-09-23T23:14:20.285Z,17.13
2022-09-23T23:16:47.540Z,17.27
2022-09-23T23:19:17.096Z,18.40
2022-09-23T23:21:45.326Z,18.40
2022-09-23T23:24:23.638Z,18.33
2022-09-23T23:26:51.569Z,18.33
2022-09-23T23:29:20.871Z,20.20
2022-09-23T23:31:48.623Z,19.07
2022-09-23T23:34:18.086Z,20.20
2022-09-23T23:36:45.905Z,19.20
2022-09-23T23:39:13.767Z,19.40
2022-09-23T23:41:41.531Z,19.93
2022-09-23T23:44:08.924Z,19.30
2022-09-23T23:46:37.365Z,18.87
2022-09-23T23:49:04.956Z,20.77
2022-09-23T23:51:32.113Z,19.93
2022-09-23T23:53:59.797Z,19.57
2022-09-23T23:56:27.621Z,20.83
2022-09-23T23:59:04.812Z,21.90
